Airfield :
LOGIN :

Register | Disclaimer

   EN    FR    IT 

 










Legend :    VFR   Marginal VFR   IFR   Intensive IFR   Very Intensive IFR
Visi :
Ceiling :
>= 8 km
>= 3000ft
5 to 8 km
1000 to 3000 ft
1500m to 5 km
500 to 1000 ft
800 to 1500m
200 to 500 ft
< 800m
< 200 ft
Symbols :   Thunderstorms  Fog  Heavy snow  Heavy precipitations  Wind > 20 kt
SIGMETs :     Misc.  Thunderstorms  Icing  Turbulence  Mountain Waves  Volcanic Ashes







- Airport Elevation : 247 ft
- IATA code : BLL


EKBI - Billund

CURRENT METAR :
  • 211120Z AUTO 28010KT 240V310 9999NDV NCD 25/08 Q1013

EXPIRED METARs :
  • 211050Z AUTO 27005KT 200V360 9999NDV NCD 24/09 Q1013
  • 211020Z AUTO 26005KT 170V330 9999NDV NCD 24/08 Q1013
  • 210950Z AUTO 28006KT 210V330 9999NDV NCD 23/09 Q1013
  • 210920Z AUTO 28006KT 230V350 9999NDV NCD 22/08 Q1014
  • 210850Z AUTO 25007KT 9999NDV NCD 21/07 Q1014

TAF TAF EKBI
Valid from the 21 at 12:00 until the 22 at 12:00 UTC


211101Z 2112/2212 29008KT CAVOK
No reported NOTAMs for that airfield.



MET'MAP, your aeronautical weather chart ! - Copyright ORBIFLY December 2007 - Disclaimer

ORBIFLY MET'MAP TEAM :

Programming & Development : Alexandra Zaïnal
Concept & Development : Baudouin d'Aumeries
Co-Development & Prog : Marc-Olivier Méhu
Technical & hardware support : Manuel Goepfert

Contact : metmap@orbifly.com




SOURCES & CREDITS :

   NOAA